Time;durP1;ratioP1;P1;durP2;ratioP2;P2;SDS_P1;SDS_P2;PMS_P1;PMS_P2;Temp;Humidity;BMP_temperature;BMP_pressure;BME280_temperature;BME280_humidity;BME280_pressure;Samples;Min_cycle;Max_cycle;Signal;HPM_P1;HPM_P2
2023/05/27 00:00:45;;;;;;;5.10;4.80;;;;;;;19.32;73.04;100216.95;109819;1270;138028;-74
2023/05/27 00:03:13;;;;;;;5.10;4.60;;;;;;;19.29;73.07;100217.23;109924;1282;22932;-76
2023/05/27 00:05:41;;;;;;;8.10;5.30;;;;;;;19.25;73.33;100212.92;110058;1274;137307;-72
2023/05/27 00:08:08;;;;;;;5.30;4.90;;;;;;;19.23;73.23;100212.73;110065;1270;138750;-76
2023/05/27 00:10:36;;;;;;;6.80;6.30;;;;;;;19.20;73.48;100212.60;110167;1274;22176;-75
2023/05/27 00:13:03;;;;;;;5.70;5.20;;;;;;;19.18;73.32;100209.55;109947;1277;138482;-70
2023/05/27 00:15:30;;;;;;;5.60;5.20;;;;;;;19.20;73.29;100210.05;110190;1273;22896;-72
2023/05/27 00:17:59;;;;;;;5.90;5.40;;;;;;;19.23;73.25;100210.85;110065;1257;138741;-77
2023/05/27 00:20:29;;;;;;;5.10;4.80;;;;;;;19.23;73.18;100208.58;110066;1275;137647;-73
2023/05/27 00:22:59;;;;;;;5.30;4.90;;;;;;;19.22;73.29;100206.14;110208;1273;22111;-81
2023/05/27 00:25:26;;;;;;;5.40;4.70;;;;;;;19.22;73.10;100202.66;110108;1278;139132;-74
2023/05/27 00:27:54;;;;;;;4.80;4.50;;;;;;;19.21;72.85;100202.34;110141;1278;22840;-79
2023/05/27 00:30:22;;;;;;;4.60;4.10;;;;;;;19.20;72.77;100205.29;109994;1277;137857;-77
2023/05/27 00:32:49;;;;;;;4.70;4.40;;;;;;;19.16;72.71;100205.01;110151;1274;138576;-77
2023/05/27 00:35:17;;;;;;;4.80;4.00;;;;;;;19.14;72.46;100202.11;110159;1276;22246;-78
2023/05/27 00:37:44;;;;;;;4.30;3.90;;;;;;;19.11;72.18;100200.30;110004;1278;138824;-77
2023/05/27 00:40:14;;;;;;;6.70;4.20;;;;;;;19.10;72.31;100203.69;109910;1278;138488;-77
2023/05/27 00:42:42;;;;;;;4.10;3.80;;;;;;;19.15;71.58;100202.89;110133;1273;22239;-72
2023/05/27 00:45:10;;;;;;;4.50;4.10;;;;;;;19.16;71.24;100199.50;109955;1273;137960;-76
2023/05/27 00:47:37;;;;;;;4.20;3.90;;;;;;;19.16;70.81;100198.27;110185;1278;22831;-73
2023/05/27 00:50:07;;;;;;;4.70;4.30;;;;;;;19.15;70.25;100197.60;109962;1274;137302;-74
2023/05/27 00:52:35;;;;;;;4.70;4.30;;;;;;;19.13;70.02;100196.27;110004;1260;138881;-76
2023/05/27 00:55:03;;;;;;;4.80;4.20;;;;;;;19.10;70.02;100194.62;110189;1272;22218;-79
2023/05/27 00:57:31;;;;;;;5.20;4.10;;;;;;;19.08;69.90;100194.63;109862;1276;137883;-77
2023/05/27 00:59:59;;;;;;;4.40;4.00;;;;;;;19.07;69.75;100190.68;110081;1278;22065;-71
2023/05/27 01:02:26;;;;;;;3.90;3.50;;;;;;;19.05;69.71;100190.38;110033;1278;139346;-77
2023/05/27 01:04:54;;;;;;;4.70;4.30;;;;;;;19.03;69.75;100188.09;110014;1276;139377;-73
2023/05/27 01:07:49;;;;;;;7.00;4.10;;;;;;;19.02;69.60;100188.45;110097;1278;22226;-75
2023/05/27 01:10:26;;;;;;;5.80;4.10;;;;;;;19.02;69.71;100187.68;109992;1274;137570;-78
2023/05/27 01:13:00;;;;;;;;;;;;;;;19.02;69.62;100189.48;110011;1274;139074;-75
2023/05/27 01:15:31;;;;;;;5.30;5.00;;;;;;;18.99;69.56;100186.17;110180;1278;22109;-75
2023/05/27 01:18:02;;;;;;;5.10;4.70;;;;;;;18.96;69.72;100187.05;110020;1273;138676;-73
2023/05/27 01:20:30;;;;;;;4.30;4.10;;;;;;;18.95;69.72;100186.66;110071;1272;138498;-71
2023/05/27 01:22:59;;;;;;;7.00;4.50;;;;;;;18.93;69.92;100182.58;110147;1272;23168;-75
2023/05/27 01:25:28;;;;;;;7.70;4.80;;;;;;;18.93;70.12;100184.80;110115;1254;139800;-79
2023/05/27 01:27:56;;;;;;;5.20;4.70;;;;;;;18.91;70.30;100181.53;110135;1274;22320;-74
2023/05/27 01:30:23;;;;;;;4.30;4.00;;;;;;;18.88;70.55;100183.93;110055;1271;138171;-76
2023/05/27 01:33:02;;;;;;;4.70;4.40;;;;;;;18.86;70.95;100179.30;110013;1278;138634;-72
2023/05/27 01:35:58;;;;;;;4.60;4.10;;;;;;;18.83;71.23;100177.14;110186;1278;22133;-76
2023/05/27 01:38:29;;;;;;;4.20;4.00;;;;;;;18.81;71.86;100178.89;110045;1273;138258;-76
2023/05/27 01:40:58;;;;;;;5.10;4.70;;;;;;;18.82;72.47;100179.71;110018;1273;138047;-67
2023/05/27 01:43:26;;;;;;;4.90;4.60;;;;;;;18.83;72.96;100177.84;110204;1259;22160;-75
2023/05/27 01:45:54;;;;;;;4.30;4.00;;;;;;;18.83;73.47;100181.25;110040;1270;139348;-72
2023/05/27 01:48:21;;;;;;;7.00;4.20;;;;;;;18.81;73.93;100182.85;110035;1278;138419;-71
2023/05/27 01:50:49;;;;;;;4.50;4.10;;;;;;;18.74;74.35;100174.79;110266;1278;22211;-78
2023/05/27 01:53:16;;;;;;;4.80;4.50;;;;;;;18.80;74.68;100183.83;110109;1276;137598;-78
2023/05/27 01:55:45;;;;;;;4.00;3.80;;;;;;;18.77;75.24;100183.02;110085;1273;22200;-76
2023/05/27 01:58:13;;;;;;;4.10;3.90;;;;;;;18.77;75.67;100184.47;109998;1276;140236;-68
2023/05/27 02:00:40;;;;;;;4.90;4.70;;;;;;;18.81;75.81;100185.47;109980;1278;140322;-78
2023/05/27 02:03:08;;;;;;;5.40;4.80;;;;;;;18.82;76.05;100187.33;110046;1278;22308;-75
2023/05/27 02:05:35;;;;;;;5.70;4.80;;;;;;;18.82;76.07;100185.83;110085;1272;137726;-73
2023/05/27 02:08:03;;;;;;;5.00;4.70;;;;;;;18.74;76.54;100186.11;110036;1269;138627;-71
2023/05/27 02:10:30;;;;;;;5.10;4.70;;;;;;;18.73;76.77;100186.36;110069;1276;22151;-73
2023/05/27 02:12:57;;;;;;;5.20;4.70;;;;;;;18.71;77.06;100187.34;110094;1273;138010;-72
2023/05/27 02:15:26;;;;;;;4.70;4.30;;;;;;;18.73;77.20;100189.64;110093;1278;22360;-73
2023/05/27 02:17:55;;;;;;;4.90;4.40;;;;;;;18.72;77.43;100188.06;109981;1269;140265;-74
2023/05/27 02:20:23;;;;;;;7.80;5.00;;;;;;;18.73;77.67;100190.52;109954;1278;140107;-74
2023/05/27 02:22:51;;;;;;;4.30;4.10;;;;;;;18.72;77.52;100190.87;110107;1278;22220;-72
2023/05/27 02:25:19;;;;;;;5.80;4.90;;;;;;;18.72;77.66;100193.46;110007;1277;137539;-74
2023/05/27 02:27:52;;;;;;;6.60;5.20;;;;;;;18.75;77.69;100196.48;110100;1262;22405;-75
2023/05/27 02:30:20;;;;;;;5.90;5.10;;;;;;;18.77;77.99;100197.80;110029;1270;139446;-76
2023/05/27 02:32:47;;;;;;;5.20;4.80;;;;;;;18.80;78.07;100198.36;110070;1270;139722;-74
2023/05/27 02:35:15;;;;;;;6.10;4.80;;;;;;;18.86;77.92;100203.16;110088;1257;22146;-76
2023/05/27 02:37:42;;;;;;;5.10;4.60;;;;;;;18.93;77.77;100203.54;110058;1270;140012;-77
2023/05/27 02:40:10;;;;;;;4.30;4.10;;;;;;;19.00;77.53;100204.45;109966;1277;139485;-77
2023/05/27 02:42:38;;;;;;;5.50;5.10;;;;;;;19.03;76.79;100203.05;110299;1272;22429;-76
2023/05/27 02:45:06;;;;;;;6.40;5.70;;;;;;;19.05;75.61;100199.61;110140;1278;138825;-77
2023/05/27 02:47:34;;;;;;;6.90;5.30;;;;;;;19.05;75.16;100202.85;110106;1275;22328;-76
2023/05/27 02:50:02;;;;;;;6.40;5.90;;;;;;;19.12;74.17;100203.92;110118;1272;138963;-78
2023/05/27 02:52:30;;;;;;;5.70;5.30;;;;;;;19.30;73.37;100204.06;110122;1276;139566;-79
2023/05/27 02:55:00;;;;;;;6.10;5.10;;;;;;;19.56;72.18;100204.30;110216;1257;22317;-79
2023/05/27 02:57:28;;;;;;;6.10;4.90;;;;;;;19.88;70.74;100204.54;109955;1273;138546;-71
2023/05/27 02:59:55;;;;;;;5.00;4.60;;;;;;;20.17;69.20;100193.23;110113;1276;22327;-80
2023/05/27 03:02:23;;;;;;;5.70;4.70;;;;;;;20.58;67.68;100192.25;110070;1278;137934;-77
2023/05/27 03:04:50;;;;;;;5.50;5.00;;;;;;;21.00;65.55;100203.42;110073;1272;138035;-81
2023/05/27 03:07:18;;;;;;;5.80;5.30;;;;;;;21.17;64.10;100203.91;110184;1274;22221;-82
2023/05/27 03:09:45;;;;;;;4.80;4.50;;;;;;;21.14;63.95;100204.38;109969;1262;138810;-81
2023/05/27 03:12:12;;;;;;;5.30;4.90;;;;;;;21.12;63.96;100208.44;110114;1272;139302;-80
2023/05/27 03:14:40;;;;;;;5.70;5.20;;;;;;;21.26;63.47;100205.21;110189;1270;22953;-78
2023/05/27 03:17:07;;;;;;;7.70;4.70;;;;;;;21.51;62.94;100204.70;110108;1272;139691;-79
2023/05/27 03:19:35;;;;;;;5.20;4.80;;;;;;;21.83;61.39;100200.66;110027;1273;22492;-81
2023/05/27 03:22:03;;;;;;;9.60;5.20;;;;;;;22.14;60.31;100198.52;109992;1269;138472;-78
2023/05/27 03:24:31;;;;;;;8.20;4.60;;;;;;;22.40;58.97;100197.86;110056;1272;138369;-82
2023/05/27 03:26:58;;;;;;;5.50;5.10;;;;;;;22.62;58.32;100197.55;110165;1272;22718;-80
2023/05/27 03:29:25;;;;;;;8.90;5.20;;;;;;;22.84;57.51;100195.86;109956;1273;137719;-78
2023/05/27 03:31:53;;;;;;;5.10;4.80;;;;;;;23.11;56.72;100195.73;109970;1271;22319;-82
2023/05/27 03:34:21;;;;;;;5.10;4.40;;;;;;;23.44;55.55;100195.84;109915;1262;138797;-79
2023/05/27 03:36:49;;;;;;;4.80;4.50;;;;;;;23.75;54.90;100195.40;110108;1272;137984;-80
2023/05/27 03:39:17;;;;;;;5.80;4.90;;;;;;;24.06;53.73;100196.56;110070;1273;22139;-78
2023/05/27 03:41:50;;;;;;;4.40;4.10;;;;;;;24.16;52.93;100196.07;109999;1278;137988;-79
2023/05/27 03:44:17;;;;;;;6.50;4.90;;;;;;;24.09;52.94;100195.61;109957;1277;138001;-76
2023/05/27 03:46:45;;;;;;;4.80;4.40;;;;;;;24.06;53.42;100194.98;110093;1273;22244;-80
2023/05/27 03:49:13;;;;;;;5.50;5.00;;;;;;;24.18;52.66;100196.42;110040;1278;139063;-82
2023/05/27 03:51:40;;;;;;;5.20;4.70;;;;;;;24.27;52.61;100199.59;110168;1278;22373;-78
2023/05/27 03:54:08;;;;;;;5.90;4.20;;;;;;;24.43;52.37;100203.45;110126;1270;137833;-76
2023/05/27 03:56:35;;;;;;;4.90;4.50;;;;;;;24.50;51.99;100208.47;110117;1278;137930;-83
2023/05/27 03:59:02;;;;;;;4.50;4.10;;;;;;;24.59;51.82;100207.61;110217;1273;22221;-85
2023/05/27 04:01:30;;;;;;;5.20;4.20;;;;;;;24.74;51.28;100211.63;109991;1269;137539;-84
2023/05/27 04:03:57;;;;;;;5.60;5.10;;;;;;;24.81;50.92;100207.03;110348;1269;22409;-72
2023/05/27 04:06:25;;;;;;;5.30;4.90;;;;;;;24.84;51.04;100209.08;110116;1269;137235;-75
2023/05/27 04:08:52;;;;;;;6.10;4.30;;;;;;;24.92;51.13;100207.59;110068;1269;138048;-76
2023/05/27 04:11:20;;;;;;;4.50;3.90;;;;;;;25.08;50.59;100207.33;110064;1270;22343;-78
2023/05/27 04:13:48;;;;;;;4.00;3.60;;;;;;;25.27;50.25;100205.34;109817;1269;137859;-76
2023/05/27 04:18:28;;;;;;;8.20;4.60;;;;;;;25.76;48.96;100204.87;103387;1297;569501;-70
2023/05/27 04:20:55;;;;;;;4.50;3.90;;;;;;;25.92;48.02;100204.36;105603;1278;137917;-68
2023/05/27 04:23:23;;;;;;;4.70;4.50;;;;;;;26.01;47.28;100206.20;105790;1268;24237;-68
2023/05/27 04:25:51;;;;;;;4.80;3.70;;;;;;;26.18;46.95;100205.30;105927;1274;138564;-70
2023/05/27 04:28:20;;;;;;;4.90;4.40;;;;;;;26.27;46.68;100202.71;105964;1270;140183;-67
2023/05/27 04:30:48;;;;;;;5.50;4.60;;;;;;;26.25;46.26;100203.45;106083;1269;154557;-74
2023/05/27 04:33:22;;;;;;;7.40;4.60;;;;;;;26.23;45.92;100209.21;106368;1266;137320;-69
2023/05/27 04:35:53;;;;;;;4.70;4.10;;;;;;;26.18;45.56;100211.97;106233;1265;24251;-71
2023/05/27 04:38:20;;;;;;;6.70;4.60;;;;;;;26.12;45.72;100209.69;106495;1269;138195;-71
2023/05/27 04:40:54;;;;;;;8.10;4.30;;;;;;;26.24;45.59;100209.52;106349;1267;138098;-72
2023/05/27 04:43:42;;;;;;;5.50;4.50;;;;;;;26.18;45.48;100209.29;106303;1271;22545;-70
2023/05/27 04:46:09;;;;;;;5.90;4.90;;;;;;;25.93;46.67;100199.27;106354;1268;137452;-72
2023/05/27 04:48:36;;;;;;;8.90;4.90;;;;;;;26.04;46.50;100215.79;106191;1269;138701;-70
2023/05/27 04:51:02;;;;;;;5.30;4.90;;;;;;;26.03;45.94;100217.64;106244;1270;25470;-76
2023/05/27 04:53:30;;;;;;;5.80;5.10;;;;;;;25.97;45.98;100219.09;106360;1264;137966;-69
2023/05/27 04:55:57;;;;;;;5.60;5.20;;;;;;;25.90;45.81;100217.08;106670;1264;25571;-73
2023/05/27 04:58:23;;;;;;;4.60;4.30;;;;;;;25.79;46.36;100217.17;106354;1265;137372;-72
2023/05/27 05:00:52;;;;;;;6.70;4.30;;;;;;;25.69;47.91;100212.66;106296;1271;138304;-76
2023/05/27 05:03:36;;;;;;;5.70;5.30;;;;;;;25.86;48.81;100209.61;106401;1267;22680;-70
2023/05/27 05:06:04;;;;;;;5.10;4.70;;;;;;;26.25;48.01;100205.63;106416;1267;138985;-70
2023/05/27 05:08:31;;;;;;;4.50;4.10;;;;;;;26.34;48.05;100190.73;106141;1272;138207;-69
2023/05/27 05:10:59;;;;;;;6.10;5.20;;;;;;;26.32;48.46;100204.23;109912;1269;22432;-71
2023/05/27 05:13:28;;;;;;;5.10;4.40;;;;;;;26.11;49.45;100205.08;109905;1270;138167;-70
2023/05/27 05:15:55;;;;;;;5.70;5.20;;;;;;;25.79;50.22;100210.79;106492;1271;22518;-73
2023/05/27 05:18:22;;;;;;;5.40;4.90;;;;;;;25.33;51.32;100196.88;106019;1265;137301;-73
2023/05/27 05:20:49;;;;;;;5.10;4.80;;;;;;;25.09;51.93;100205.67;106285;1268;139382;-70
2023/05/27 05:23:20;;;;;;;5.30;4.90;;;;;;;24.77;52.71;100190.11;106938;1272;23367;-73
2023/05/27 05:25:54;;;;;;;7.00;5.60;;;;;;;24.84;52.76;100205.60;106485;1270;137029;-77
2023/05/27 05:28:20;;;;;;;5.30;4.80;;;;;;;24.85;52.64;100206.63;106762;1272;137733;-77
2023/05/27 05:30:48;;;;;;;6.10;5.70;;;;;;;24.77;52.48;100206.48;106915;1271;22528;-72
2023/05/27 05:33:16;;;;;;;6.20;5.70;;;;;;;24.73;52.41;100205.16;106840;1266;137710;-76
2023/05/27 05:35:42;;;;;;;5.60;5.20;;;;;;;24.70;52.66;100206.33;106489;1256;22648;-74
2023/05/27 05:38:18;;;;;;;5.60;5.20;;;;;;;24.86;52.66;100207.76;106794;1268;137961;-75
2023/05/27 05:40:49;;;;;;;7.90;5.90;;;;;;;25.14;51.73;100206.94;106377;1266;137921;-74
2023/05/27 05:43:16;;;;;;;5.80;5.40;;;;;;;25.20;50.98;100208.72;106463;1265;22527;-76
2023/05/27 05:45:43;;;;;;;6.20;5.70;;;;;;;25.01;51.02;100216.48;106203;1268;137227;-75
2023/05/27 05:48:10;;;;;;;5.90;5.40;;;;;;;24.85;51.46;100219.77;106362;1265;139598;-78
2023/05/27 05:50:40;;;;;;;9.40;6.00;;;;;;;24.58;52.36;100212.95;106641;1272;22651;-72
2023/05/27 05:53:07;;;;;;;9.30;5.90;;;;;;;24.21;53.17;100222.77;106589;1268;138166;-74
2023/05/27 05:55:34;;;;;;;6.10;5.70;;;;;;;23.80;53.90;100225.27;106621;1271;22528;-77
2023/05/27 05:58:01;;;;;;;7.20;6.70;;;;;;;23.28;56.16;100228.59;106661;1264;137423;-75
2023/05/27 06:00:28;;;;;;;6.10;5.60;;;;;;;22.78;58.19;100235.16;106476;1272;138088;-80
2023/05/27 06:03:02;;;;;;;7.60;6.90;;;;;;;22.34;60.19;100238.96;106921;1268;22532;-75
2023/05/27 06:05:42;;;;;;;6.60;5.90;;;;;;;22.03;61.76;100248.92;107398;1268;137398;-70
2023/05/27 06:08:13;;;;;;;7.20;6.60;;;;;;;21.85;63.03;100253.69;107819;1270;139653;-70
2023/05/27 06:10:42;;;;;;;8.40;7.50;;;;;;;21.78;63.95;100255.39;107863;1272;22526;-71
2023/05/27 06:13:11;;;;;;;10.30;7.40;;;;;;;21.71;64.46;100252.86;108143;1271;136420;-75
2023/05/27 06:15:38;;;;;;;9.90;7.40;;;;;;;21.55;64.73;100243.94;107680;1268;25436;-77
2023/05/27 06:18:05;;;;;;;8.90;6.90;;;;;;;21.45;65.46;100258.14;107330;1272;138425;-74
2023/05/27 06:20:33;;;;;;;10.20;7.60;;;;;;;21.28;66.74;100263.71;106738;1271;138465;-70
2023/05/27 06:22:59;;;;;;;8.50;7.60;;;;;;;21.07;68.06;100264.70;106396;1267;25548;-75
2023/05/27 06:25:27;;;;;;;10.90;8.60;;;;;;;20.85;69.53;100267.35;106127;1272;137929;-76
2023/05/27 06:27:56;;;;;;;9.00;8.20;;;;;;;20.75;70.28;100270.73;106320;1261;24967;-77
2023/05/27 06:30:24;;;;;;;9.00;8.00;;;;;;;20.72;70.83;100274.17;106949;1271;137876;-75
2023/05/27 06:32:51;;;;;;;8.00;7.20;;;;;;;20.70;70.88;100272.60;106293;1268;137605;-74
2023/05/27 06:35:19;;;;;;;7.60;6.90;;;;;;;20.71;70.73;100273.30;106562;1273;22507;-78
2023/05/27 06:37:45;;;;;;;9.10;8.40;;;;;;;20.69;71.10;100275.18;106323;1273;137278;-74
2023/05/27 06:40:14;;;;;;;8.70;8.00;;;;;;;20.68;70.99;100280.05;106283;1269;139325;-70
2023/05/27 06:42:43;;;;;;;10.70;9.60;;;;;;;20.63;70.55;100272.46;106340;1271;24078;-73
2023/05/27 06:45:18;;;;;;;8.40;7.60;;;;;;;20.72;70.11;100279.38;106206;1271;138240;-70
2023/05/27 06:47:45;;;;;;;9.90;9.00;;;;;;;20.71;69.82;100273.45;106714;1272;22758;-74
2023/05/27 06:50:13;;;;;;;9.40;8.60;;;;;;;20.81;69.23;100282.98;106451;1272;139474;-73
2023/05/27 06:52:40;;;;;;;9.50;8.40;;;;;;;20.82;69.07;100286.73;106190;1270;137705;-73
2023/05/27 06:55:30;;;;;;;11.10;8.00;;;;;;;20.78;68.75;100289.88;106772;1270;23883;-78
2023/05/27 09:57:39;;;;;;;7.60;5.70;;;;;;;24.48;49.10;100194.21;103409;1311;545450;-78
2023/05/27 10:00:11;;;;;;;8.40;5.10;;;;;;;24.54;48.10;100200.40;105786;1282;138496;-77
2023/05/27 10:02:48;;;;;;;15.60;5.00;;;;;;;24.51;47.91;100195.88;106020;1279;24408;-81
2023/05/27 10:05:16;;;;;;;15.30;5.60;;;;;;;24.45;48.14;100194.98;106052;1275;137207;-78
2023/05/27 10:07:45;;;;;;;8.60;5.40;;;;;;;24.45;48.75;100186.21;106545;1283;23356;-80
2023/05/27 10:10:33;;;;;;;8.10;5.00;;;;;;;24.52;49.57;100176.10;106255;1278;271299;-78
2023/05/27 10:13:01;;;;;;;6.90;6.00;;;;;;;24.59;49.88;100176.11;106577;1275;136119;-77
2023/05/27 10:15:32;;;;;;;6.00;4.60;;;;;;;24.66;50.00;100178.98;106545;1278;25457;-79
2023/05/27 10:18:09;;;;;;;6.20;5.10;;;;;;;24.76;49.59;100173.23;106296;1275;138068;-78
2023/05/27 10:20:38;;;;;;;6.20;5.70;;;;;;;24.87;49.25;100170.13;106458;1275;138804;-78
2023/05/27 10:23:30;;;;;;;7.10;4.70;;;;;;;24.96;49.93;100162.30;106556;1276;24408;-77
2023/05/27 10:26:04;;;;;;;6.70;4.90;;;;;;;24.99;50.17;100153.64;106287;1279;138802;-77
2023/05/27 10:28:39;;;;;;;6.20;5.40;;;;;;;24.95;49.91;100151.99;106285;1275;138134;-75
2023/05/27 10:31:09;;;;;;;6.00;4.30;;;;;;;24.87;50.07;100160.52;106613;1272;24264;-76
2023/05/27 10:33:39;;;;;;;5.30;5.00;;;;;;;24.84;50.07;100160.34;106425;1272;138513;-77
2023/05/27 10:36:21;;;;;;;5.30;4.10;;;;;;;24.82;49.21;100153.33;106270;1272;137802;-77
2023/05/27 10:38:59;;;;;;;4.70;4.10;;;;;;;24.78;47.94;100155.98;106443;1279;25397;-79
2023/05/27 10:41:26;;;;;;;8.50;4.20;;;;;;;24.73;47.67;100158.77;106366;1272;138555;-80
2023/05/27 10:43:58;;;;;;;5.00;4.50;;;;;;;24.74;47.77;100164.96;106317;1275;24548;-78
2023/05/27 10:46:26;;;;;;;4.20;3.80;;;;;;;24.81;47.00;100169.04;106357;1275;137261;-78
2023/05/27 10:48:53;;;;;;;4.00;3.60;;;;;;;24.85;45.78;100177.45;106022;1275;137664;-76
2023/05/27 10:51:31;;;;;;;6.30;4.30;;;;;;;24.84;44.72;100182.96;106501;1272;25410;-78
2023/05/27 10:54:04;;;;;;;5.50;3.90;;;;;;;24.80;44.23;100180.77;106219;1273;137114;-79
2023/05/27 10:56:52;;;;;;;3.80;3.50;;;;;;;24.82;44.45;100177.05;106229;1275;137466;-78
2023/05/27 10:59:22;;;;;;;5.40;3.50;;;;;;;24.88;43.82;100170.94;106501;1273;24387;-78
2023/05/27 11:01:53;;;;;;;4.10;3.60;;;;;;;24.93;43.53;100173.57;106337;1275;138799;-78
2023/05/27 11:04:21;;;;;;;8.80;4.80;;;;;;;24.97;43.52;100172.75;106378;1272;138436;-79
2023/05/27 11:07:00;;;;;;;7.20;4.00;;;;;;;25.03;43.06;100172.08;106501;1266;25437;-78
2023/05/27 11:09:42;;;;;;;5.90;4.80;;;;;;;25.11;43.75;100166.43;106126;1272;137552;-77
2023/05/27 11:12:16;;;;;;;5.80;4.50;;;;;;;25.16;44.56;100164.96;106228;1275;136993;-78
2023/05/27 11:14:52;;;;;;;5.30;4.70;;;;;;;25.21;45.15;100165.40;106401;1272;25325;-78
2023/05/27 11:17:20;;;;;;;5.80;5.40;;;;;;;25.22;45.90;100168.89;106455;1279;138818;-77
2023/05/27 11:19:49;;;;;;;5.50;5.10;;;;;;;25.21;46.59;100170.14;106418;1275;23272;-77
2023/05/27 11:22:17;;;;;;;6.50;5.70;;;;;;;25.20;47.09;100167.33;106399;1269;138330;-77
2023/05/27 11:24:56;;;;;;;6.80;6.20;;;;;;;25.17;47.46;100166.48;106418;1272;137362;-81
2023/05/27 11:27:22;;;;;;;5.80;5.30;;;;;;;25.13;47.76;100161.62;106575;1276;22543;-76
2023/05/27 11:29:51;;;;;;;5.40;5.10;;;;;;;25.11;47.66;100153.85;106472;1269;137701;-81
2023/05/27 11:32:19;;;;;;;6.30;5.90;;;;;;;25.09;47.70;100155.23;106471;1277;137822;-78
2023/05/27 11:34:47;;;;;;;4.70;4.50;;;;;;;25.10;48.22;100155.27;106921;1269;23384;-79
2023/05/27 11:37:15;;;;;;;5.70;5.30;;;;;;;25.16;48.11;100148.06;106457;1273;138670;-80
2023/05/27 11:39:52;;;;;;;5.70;5.20;;;;;;;25.23;48.14;100144.95;106695;1269;24249;-77
2023/05/27 11:42:24;;;;;;;10.50;5.50;;;;;;;25.22;48.42;100136.82;106254;1259;137249;-76
2023/05/27 11:44:54;;;;;;;7.30;6.10;;;;;;;25.18;48.61;100133.20;106232;1269;139953;-77
2023/05/27 11:47:22;;;;;;;5.70;5.30;;;;;;;25.16;48.66;100130.88;107106;1272;25452;-77
2023/05/27 11:49:50;;;;;;;7.70;4.50;;;;;;;25.16;47.10;100141.31;106528;1269;137548;-80
2023/05/27 11:52:17;;;;;;;6.80;5.20;;;;;;;25.13;44.44;100152.45;106569;1278;137691;-78
2023/05/27 11:54:48;;;;;;;9.00;4.70;;;;;;;25.07;42.96;100162.05;107990;1272;25389;-80
2023/05/27 11:57:24;;;;;;;6.80;6.00;;;;;;;25.04;42.16;100167.23;106477;1270;137430;-77
2023/05/27 11:59:51;;;;;;;4.80;4.10;;;;;;;25.00;42.45;100171.69;106508;1270;24331;-78
2023/05/27 12:02:20;;;;;;;5.50;5.10;;;;;;;24.95;43.28;100175.13;106469;1269;137403;-77
2023/05/27 12:04:47;;;;;;;4.70;3.90;;;;;;;24.90;44.49;100167.80;106674;1276;138053;-77
2023/05/27 12:07:14;;;;;;;5.20;4.10;;;;;;;24.89;44.66;100170.98;106791;1272;22533;-78
2023/05/27 12:09:48;;;;;;;4.70;4.30;;;;;;;24.86;45.00;100171.88;106694;1263;137246;-78
2023/05/27 12:12:15;;;;;;;5.60;4.50;;;;;;;24.85;45.60;100174.39;106494;1269;138991;-78
2023/05/27 12:14:42;;;;;;;7.40;5.20;;;;;;;24.85;46.05;100174.67;106541;1272;24400;-76
2023/05/27 12:17:08;;;;;;;5.40;4.80;;;;;;;24.80;46.62;100177.49;106389;1272;137454;-77
2023/05/27 12:19:35;;;;;;;5.10;4.70;;;;;;;24.78;47.13;100175.71;106571;1272;25457;-76
2023/05/27 12:22:02;;;;;;;8.20;5.70;;;;;;;24.78;47.50;100165.30;106403;1270;139276;-78
2023/05/27 12:24:30;;;;;;;7.20;5.00;;;;;;;24.76;47.85;100161.62;106892;1269;137356;-77
2023/05/27 12:26:57;;;;;;;5.70;5.20;;;;;;;24.72;48.02;100163.35;106904;1267;23985;-78
2023/05/27 12:29:26;;;;;;;6.80;6.00;;;;;;;24.64;48.44;100164.83;106950;1272;137588;-79
2023/05/27 12:31:52;;;;;;;6.50;6.00;;;;;;;24.58;48.91;100156.00;107275;1266;24159;-76
2023/05/27 12:34:19;;;;;;;5.90;5.40;;;;;;;24.52;49.29;100144.77;107168;1272;137673;-81
2023/05/27 12:36:47;;;;;;;6.20;5.60;;;;;;;24.47;49.53;100147.20;107048;1273;137297;-79
2023/05/27 12:39:14;;;;;;;7.10;6.50;;;;;;;24.40;49.86;100144.75;107173;1272;24037;-78
2023/05/27 12:41:41;;;;;;;5.30;5.00;;;;;;;24.30;50.15;100150.33;106976;1272;137711;-81
2023/05/27 12:44:08;;;;;;;5.70;4.10;;;;;;;24.20;49.77;100155.85;107601;1266;137771;-78
2023/05/27 12:46:34;;;;;;;10.10;5.00;;;;;;;24.11;48.80;100157.00;107727;1268;23432;-76
2023/05/27 12:49:01;;;;;;;5.90;4.50;;;;;;;24.05;48.79;100164.45;107880;1266;137873;-76
2023/05/27 12:51:28;;;;;;;6.90;3.90;;;;;;;24.05;48.53;100172.30;108253;1267;22482;-77
2023/05/27 12:53:54;;;;;;;4.50;4.10;;;;;;;24.01;47.93;100171.66;108377;1269;137332;-78
2023/05/27 12:56:21;;;;;;;4.60;4.20;;;;;;;23.96;47.72;100179.32;108121;1272;138147;-79
2023/05/27 12:58:48;;;;;;;7.90;4.60;;;;;;;23.92;47.67;100183.14;108118;1267;23751;-79
2023/05/27 13:01:15;;;;;;;4.50;4.10;;;;;;;23.89;47.53;100187.09;107914;1263;137147;-79
2023/05/27 13:03:42;;;;;;;5.30;3.80;;;;;;;23.84;47.84;100185.75;107465;1256;23387;-81
2023/05/27 13:06:10;;;;;;;12.60;4.50;;;;;;;23.80;48.05;100183.70;107241;1268;136379;-81
2023/05/27 13:08:37;;;;;;;5.20;4.50;;;;;;;23.80;48.29;100187.02;107585;1264;138482;-72
2023/05/27 13:11:04;;;;;;;4.70;4.20;;;;;;;23.82;48.36;100185.21;106771;1271;22564;-78
2023/05/27 13:13:31;;;;;;;6.60;5.30;;;;;;;23.78;48.42;100167.34;106810;1272;137567;-87
2023/05/27 13:15:58;;;;;;;7.50;4.00;;;;;;;23.85;48.11;100179.59;107459;1271;22573;-81
2023/05/27 13:18:25;;;;;;;6.00;3.70;;;;;;;23.86;47.78;100178.05;107331;1263;138396;-79
2023/05/27 13:20:52;;;;;;;4.10;3.80;;;;;;;23.87;47.77;100181.05;107039;1271;137871;-76
2023/05/27 13:23:20;;;;;;;5.00;4.50;;;;;;;23.82;47.99;100179.71;106513;1271;22575;-76
2023/05/27 13:25:47;;;;;;;5.40;4.90;;;;;;;23.77;48.30;100188.33;106909;1276;137605;-76
2023/05/27 13:28:13;;;;;;;8.10;7.30;;;;;;;23.72;48.93;100188.45;106859;1263;138832;-81
2023/05/27 13:30:41;;;;;;;9.90;7.20;;;;;;;23.71;48.92;100187.15;106889;1275;25556;-78
2023/05/27 13:33:08;;;;;;;5.10;4.70;;;;;;;23.69;48.75;100189.06;106678;1259;137570;-82
2023/05/27 13:35:35;;;;;;;6.20;5.80;;;;;;;23.66;49.04;100184.56;106813;1268;24369;-84
2023/05/27 13:38:02;;;;;;;5.10;4.60;;;;;;;23.64;49.41;100185.05;106624;1268;138048;-72
2023/05/27 13:40:29;;;;;;;6.60;5.90;;;;;;;23.62;49.85;100180.02;106550;1271;137546;-72
2023/05/27 13:42:56;;;;;;;5.90;4.80;;;;;;;23.61;49.73;100162.27;106865;1271;25970;-81
2023/05/27 13:45:23;;;;;;;4.70;4.40;;;;;;;23.76;49.75;100178.58;106737;1273;137261;-71
2023/05/27 13:47:50;;;;;;;7.00;6.40;;;;;;;23.81;50.08;100178.96;106671;1262;22531;-75
2023/05/27 13:50:18;;;;;;;9.10;6.50;;;;;;;23.86;50.75;100179.70;106443;1268;137923;-82
2023/05/27 13:52:45;;;;;;;8.50;6.30;;;;;;;23.89;51.26;100180.23;106869;1272;137824;-77
2023/05/27 13:55:12;;;;;;;6.30;5.30;;;;;;;23.89;51.78;100182.52;107999;1269;25409;-81
2023/05/27 13:57:40;;;;;;;5.00;4.70;;;;;;;23.90;51.69;100180.66;106783;1268;137853;-78
2023/05/27 14:00:07;;;;;;;4.30;4.00;;;;;;;23.91;51.88;100179.13;106791;1268;138520;-84
2023/05/27 14:02:34;;;;;;;6.10;5.10;;;;;;;23.86;52.13;100179.91;106733;1268;22557;-82
2023/05/27 14:05:01;;;;;;;6.50;5.00;;;;;;;23.81;52.60;100179.51;106552;1275;137591;-85
2023/05/27 14:07:28;;;;;;;4.90;4.40;;;;;;;23.76;52.74;100175.48;106743;1268;25468;-80
2023/05/27 14:09:55;;;;;;;5.40;4.80;;;;;;;23.71;52.87;100174.52;107014;1262;138073;-85
2023/05/27 14:12:25;;;;;;;6.80;4.60;;;;;;;23.70;53.16;100172.23;106824;1270;138685;-79
2023/05/27 14:14:52;;;;;;;5.60;5.10;;;;;;;23.72;53.40;100170.00;107051;1271;23875;-77
2023/05/27 14:17:18;;;;;;;4.80;4.40;;;;;;;23.72;53.24;100173.38;107047;1271;137976;-81
2023/05/27 14:19:47;;;;;;;5.20;4.90;;;;;;;23.73;53.36;100173.15;107204;1262;23696;-79
2023/05/27 14:22:13;;;;;;;6.30;5.70;;;;;;;23.75;53.39;100174.23;106708;1272;137854;-79